sensor_id;sensor_type;location;lat;lon;timestamp;P1;durP1;ratioP1;P2;durP2;ratioP2
52208;SDS011;38507;53.132;6.394;2022-09-29T00:00:36;3.85;;;2.70;;
52208;SDS011;38507;53.132;6.394;2022-09-29T00:03:02;4.15;;;2.80;;
52208;SDS011;38507;53.132;6.394;2022-09-29T00:05:28;4.57;;;2.78;;
52208;SDS011;38507;53.132;6.394;2022-09-29T00:07:54;7.45;;;3.30;;
52208;SDS011;38507;53.132;6.394;2022-09-29T00:10:20;4.57;;;3.05;;
52208;SDS011;38507;53.132;6.394;2022-09-29T00:12:46;3.92;;;2.72;;
52208;SDS011;38507;53.132;6.394;2022-09-29T00:15:11;5.47;;;2.97;;
52208;SDS011;38507;53.132;6.394;2022-09-29T00:17:38;6.60;;;3.20;;
52208;SDS011;38507;53.132;6.394;2022-09-29T00:20:03;5.00;;;2.70;;
52208;SDS011;38507;53.132;6.394;2022-09-29T00:22:29;3.45;;;1.90;;
52208;SDS011;38507;53.132;6.394;2022-09-29T00:24:55;3.22;;;2.00;;
52208;SDS011;38507;53.132;6.394;2022-09-29T00:27:20;4.05;;;3.08;;
52208;SDS011;38507;53.132;6.394;2022-09-29T00:29:46;3.25;;;2.25;;
52208;SDS011;38507;53.132;6.394;2022-09-29T00:32:12;6.70;;;2.60;;
52208;SDS011;38507;53.132;6.394;2022-09-29T00:34:38;3.33;;;1.92;;
52208;SDS011;38507;53.132;6.394;2022-09-29T00:37:03;3.45;;;2.00;;
52208;SDS011;38507;53.132;6.394;2022-09-29T00:39:29;4.10;;;2.10;;
52208;SDS011;38507;53.132;6.394;2022-09-29T00:41:55;4.50;;;2.40;;
52208;SDS011;38507;53.132;6.394;2022-09-29T00:49:47;5.47;;;3.97;;
52208;SDS011;38507;53.132;6.394;2022-09-29T00:54:46;9.35;;;4.90;;
52208;SDS011;38507;53.132;6.394;2022-09-29T00:57:37;7.03;;;4.45;;
52208;SDS011;38507;53.132;6.394;2022-09-29T01:00:17;6.88;;;4.78;;
52208;SDS011;38507;53.132;6.394;2022-09-29T01:02:44;7.03;;;4.28;;
52208;SDS011;38507;53.132;6.394;2022-09-29T01:05:18;7.10;;;4.90;;
52208;SDS011;38507;53.132;6.394;2022-09-29T01:07:49;5.32;;;4.10;;
52208;SDS011;38507;53.132;6.394;2022-09-29T01:10:15;7.57;;;4.80;;
52208;SDS011;38507;53.132;6.394;2022-09-29T01:12:45;7.35;;;4.82;;
52208;SDS011;38507;53.132;6.394;2022-09-29T01:15:13;7.28;;;4.80;;
52208;SDS011;38507;53.132;6.394;2022-09-29T01:17:40;7.28;;;5.18;;
52208;SDS011;38507;53.132;6.394;2022-09-29T01:20:09;8.02;;;4.55;;
52208;SDS011;38507;53.132;6.394;2022-09-29T01:25:53;11.50;;;3.80;;
52208;SDS011;38507;53.132;6.394;2022-09-29T01:31:20;6.82;;;4.03;;
52208;SDS011;38507;53.132;6.394;2022-09-29T01:39:39;6.47;;;4.43;;
52208;SDS011;38507;53.132;6.394;2022-09-29T01:42:16;8.13;;;5.50;;
52208;SDS011;38507;53.132;6.394;2022-09-29T01:44:45;6.13;;;4.20;;
52208;SDS011;38507;53.132;6.394;2022-09-29T01:49:55;8.63;;;4.28;;
52208;SDS011;38507;53.132;6.394;2022-09-29T01:52:25;5.55;;;4.18;;
52208;SDS011;38507;53.132;6.394;2022-09-29T01:55:00;4.38;;;3.00;;
52208;SDS011;38507;53.132;6.394;2022-09-29T01:57:41;4.80;;;2.80;;
52208;SDS011;38507;53.132;6.394;2022-09-29T02:00:16;4.28;;;2.63;;
52208;SDS011;38507;53.132;6.394;2022-09-29T02:02:56;3.30;;;2.42;;
52208;SDS011;38507;53.132;6.394;2022-09-29T02:05:27;7.65;;;2.85;;
52208;SDS011;38507;53.132;6.394;2022-09-29T02:07:56;4.25;;;2.85;;
52208;SDS011;38507;53.132;6.394;2022-09-29T02:13:25;4.03;;;2.28;;
52208;SDS011;38507;53.132;6.394;2022-09-29T02:15:58;4.63;;;2.90;;
52208;SDS011;38507;53.132;6.394;2022-09-29T02:18:26;5.07;;;3.30;;
52208;SDS011;38507;53.132;6.394;2022-09-29T02:20:56;4.90;;;3.50;;
52208;SDS011;38507;53.132;6.394;2022-09-29T02:23:22;4.70;;;3.00;;
52208;SDS011;38507;53.132;6.394;2022-09-29T02:25:47;3.78;;;2.75;;
52208;SDS011;38507;53.132;6.394;2022-09-29T02:28:15;3.65;;;2.35;;
52208;SDS011;38507;53.132;6.394;2022-09-29T02:30:41;4.03;;;2.33;;
52208;SDS011;38507;53.132;6.394;2022-09-29T02:33:18;3.92;;;2.20;;
52208;SDS011;38507;53.132;6.394;2022-09-29T02:35:50;3.47;;;2.53;;
52208;SDS011;38507;53.132;6.394;2022-09-29T02:41:17;4.82;;;3.28;;
52208;SDS011;38507;53.132;6.394;2022-09-29T02:44:15;4.63;;;3.38;;
52208;SDS011;38507;53.132;6.394;2022-09-29T02:55:17;18.33;;;3.45;;
52208;SDS011;38507;53.132;6.394;2022-09-29T02:57:56;54.22;;;5.72;;
52208;SDS011;38507;53.132;6.394;2022-09-29T03:00:27;4.45;;;3.08;;
52208;SDS011;38507;53.132;6.394;2022-09-29T03:02:53;11.45;;;3.70;;
52208;SDS011;38507;53.132;6.394;2022-09-29T03:05:20;4.70;;;2.50;;
52208;SDS011;38507;53.132;6.394;2022-09-29T03:07:47;3.80;;;2.55;;
52208;SDS011;38507;53.132;6.394;2022-09-29T03:10:13;4.43;;;3.28;;
52208;SDS011;38507;53.132;6.394;2022-09-29T03:12:41;8.45;;;4.00;;
52208;SDS011;38507;53.132;6.394;2022-09-29T03:15:06;6.30;;;5.03;;
52208;SDS011;38507;53.132;6.394;2022-09-29T03:17:33;7.32;;;5.03;;
52208;SDS011;38507;53.132;6.394;2022-09-29T03:19:58;6.68;;;5.13;;
52208;SDS011;38507;53.132;6.394;2022-09-29T03:22:24;5.53;;;4.40;;
52208;SDS011;38507;53.132;6.394;2022-09-29T03:24:50;6.95;;;3.75;;
52208;SDS011;38507;53.132;6.394;2022-09-29T03:27:16;4.40;;;3.20;;
52208;SDS011;38507;53.132;6.394;2022-09-29T03:29:42;6.03;;;3.90;;
52208;SDS011;38507;53.132;6.394;2022-09-29T03:32:07;7.30;;;3.10;;
52208;SDS011;38507;53.132;6.394;2022-09-29T03:34:33;4.28;;;3.10;;
52208;SDS011;38507;53.132;6.394;2022-09-29T03:36:59;3.65;;;2.85;;
52208;SDS011;38507;53.132;6.394;2022-09-29T03:39:25;3.22;;;2.20;;
52208;SDS011;38507;53.132;6.394;2022-09-29T03:41:52;3.33;;;2.38;;
52208;SDS011;38507;53.132;6.394;2022-09-29T03:44:17;2.70;;;2.08;;
52208;SDS011;38507;53.132;6.394;2022-09-29T03:46:43;2.35;;;1.75;;
52208;SDS011;38507;53.132;6.394;2022-09-29T03:49:10;3.20;;;2.53;;
52208;SDS011;38507;53.132;6.394;2022-09-29T03:51:36;2.80;;;2.10;;
52208;SDS011;38507;53.132;6.394;2022-09-29T03:54:03;3.40;;;2.80;;
52208;SDS011;38507;53.132;6.394;2022-09-29T03:56:28;3.75;;;2.80;;
52208;SDS011;38507;53.132;6.394;2022-09-29T03:58:55;4.07;;;3.17;;
52208;SDS011;38507;53.132;6.394;2022-09-29T04:01:20;4.70;;;3.42;;
52208;SDS011;38507;53.132;6.394;2022-09-29T04:03:46;3.97;;;2.83;;
52208;SDS011;38507;53.132;6.394;2022-09-29T04:06:15;3.42;;;2.25;;
52208;SDS011;38507;53.132;6.394;2022-09-29T04:08:40;3.63;;;2.70;;
52208;SDS011;38507;53.132;6.394;2022-09-29T04:11:06;3.85;;;2.90;;
52208;SDS011;38507;53.132;6.394;2022-09-29T04:13:32;4.68;;;2.97;;
52208;SDS011;38507;53.132;6.394;2022-09-29T04:16:01;6.03;;;3.72;;
52208;SDS011;38507;53.132;6.394;2022-09-29T04:18:28;5.40;;;3.92;;
52208;SDS011;38507;53.132;6.394;2022-09-29T04:20:55;4.45;;;3.28;;
52208;SDS011;38507;53.132;6.394;2022-09-29T04:23:24;4.40;;;3.28;;
52208;SDS011;38507;53.132;6.394;2022-09-29T04:25:54;6.10;;;4.30;;
52208;SDS011;38507;53.132;6.394;2022-09-29T04:28:21;7.13;;;5.43;;
52208;SDS011;38507;53.132;6.394;2022-09-29T04:30:47;8.65;;;6.55;;
52208;SDS011;38507;53.132;6.394;2022-09-29T04:33:12;14.20;;;6.97;;
52208;SDS011;38507;53.132;6.394;2022-09-29T04:35:38;7.53;;;6.18;;
52208;SDS011;38507;53.132;6.394;2022-09-29T04:38:03;7.45;;;5.50;;
52208;SDS011;38507;53.132;6.394;2022-09-29T04:40:29;7.93;;;6.15;;
52208;SDS011;38507;53.132;6.394;2022-09-29T04:42:55;8.05;;;6.28;;
52208;SDS011;38507;53.132;6.394;2022-09-29T04:45:21;8.00;;;6.38;;
52208;SDS011;38507;53.132;6.394;2022-09-29T04:47:46;6.72;;;5.15;;
52208;SDS011;38507;53.132;6.394;2022-09-29T04:50:12;6.05;;;4.70;;
52208;SDS011;38507;53.132;6.394;2022-09-29T04:52:41;8.93;;;6.60;;
52208;SDS011;38507;53.132;6.394;2022-09-29T04:55:07;9.77;;;6.95;;
52208;SDS011;38507;53.132;6.394;2022-09-29T04:57:35;8.50;;;6.47;;
52208;SDS011;38507;53.132;6.394;2022-09-29T05:00:02;10.75;;;6.22;;
52208;SDS011;38507;53.132;6.394;2022-09-29T05:02:29;7.50;;;5.93;;
52208;SDS011;38507;53.132;6.394;2022-09-29T05:04:55;7.20;;;5.40;;
52208;SDS011;38507;53.132;6.394;2022-09-29T05:07:20;7.22;;;5.25;;
52208;SDS011;38507;53.132;6.394;2022-09-29T05:09:46;8.27;;;4.70;;
52208;SDS011;38507;53.132;6.394;2022-09-29T05:12:12;4.97;;;3.75;;
52208;SDS011;38507;53.132;6.394;2022-09-29T05:14:38;8.93;;;4.57;;
52208;SDS011;38507;53.132;6.394;2022-09-29T05:17:04;6.90;;;4.90;;
52208;SDS011;38507;53.132;6.394;2022-09-29T05:19:29;9.32;;;5.40;;
52208;SDS011;38507;53.132;6.394;2022-09-29T05:21:56;7.43;;;5.10;;
52208;SDS011;38507;53.132;6.394;2022-09-29T05:24:22;5.70;;;4.25;;
52208;SDS011;38507;53.132;6.394;2022-09-29T05:26:48;15.52;;;4.90;;
52208;SDS011;38507;53.132;6.394;2022-09-29T05:29:14;13.02;;;7.25;;
52208;SDS011;38507;53.132;6.394;2022-09-29T05:31:39;9.75;;;6.15;;
52208;SDS011;38507;53.132;6.394;2022-09-29T05:34:05;13.13;;;5.10;;
52208;SDS011;38507;53.132;6.394;2022-09-29T05:36:31;8.52;;;4.60;;
52208;SDS011;38507;53.132;6.394;2022-09-29T05:38:56;27.23;;;4.75;;
52208;SDS011;38507;53.132;6.394;2022-09-29T05:41:22;8.27;;;4.95;;
52208;SDS011;38507;53.132;6.394;2022-09-29T05:43:49;13.05;;;4.95;;
52208;SDS011;38507;53.132;6.394;2022-09-29T05:46:17;9.40;;;4.70;;
52208;SDS011;38507;53.132;6.394;2022-09-29T05:48:46;8.63;;;4.90;;
52208;SDS011;38507;53.132;6.394;2022-09-29T05:51:14;10.88;;;4.90;;
52208;SDS011;38507;53.132;6.394;2022-09-29T05:53:41;17.25;;;4.82;;
52208;SDS011;38507;53.132;6.394;2022-09-29T05:56:08;12.57;;;4.93;;
52208;SDS011;38507;53.132;6.394;2022-09-29T05:58:36;8.55;;;5.60;;
52208;SDS011;38507;53.132;6.394;2022-09-29T06:01:10;12.57;;;5.53;;
52208;SDS011;38507;53.132;6.394;2022-09-29T06:03:40;7.65;;;5.13;;
52208;SDS011;38507;53.132;6.394;2022-09-29T06:06:07;8.60;;;4.85;;
52208;SDS011;38507;53.132;6.394;2022-09-29T06:08:37;6.85;;;4.70;;
52208;SDS011;38507;53.132;6.394;2022-09-29T06:11:04;8.00;;;5.03;;
52208;SDS011;38507;53.132;6.394;2022-09-29T06:13:30;7.20;;;5.85;;
52208;SDS011;38507;53.132;6.394;2022-09-29T06:15:59;7.65;;;6.03;;
52208;SDS011;38507;53.132;6.394;2022-09-29T06:18:25;8.07;;;5.30;;
52208;SDS011;38507;53.132;6.394;2022-09-29T06:20:51;9.73;;;5.97;;
52208;SDS011;38507;53.132;6.394;2022-09-29T06:23:17;9.00;;;6.80;;
52208;SDS011;38507;53.132;6.394;2022-09-29T06:25:42;11.85;;;8.20;;
52208;SDS011;38507;53.132;6.394;2022-09-29T06:28:08;9.02;;;7.63;;
52208;SDS011;38507;53.132;6.394;2022-09-29T06:30:34;10.68;;;7.38;;
52208;SDS011;38507;53.132;6.394;2022-09-29T06:32:59;12.40;;;9.27;;
52208;SDS011;38507;53.132;6.394;2022-09-29T06:35:25;11.73;;;8.70;;
52208;SDS011;38507;53.132;6.394;2022-09-29T06:38:09;12.25;;;8.02;;
52208;SDS011;38507;53.132;6.394;2022-09-29T06:40:35;16.13;;;9.38;;
52208;SDS011;38507;53.132;6.394;2022-09-29T06:43:00;14.35;;;9.88;;
52208;SDS011;38507;53.132;6.394;2022-09-29T06:45:27;13.10;;;9.43;;
52208;SDS011;38507;53.132;6.394;2022-09-29T06:47:59;12.23;;;8.68;;
52208;SDS011;38507;53.132;6.394;2022-09-29T06:50:24;12.75;;;8.40;;
52208;SDS011;38507;53.132;6.394;2022-09-29T06:52:50;12.40;;;8.27;;
52208;SDS011;38507;53.132;6.394;2022-09-29T06:55:15;11.95;;;8.38;;
52208;SDS011;38507;53.132;6.394;2022-09-29T06:57:41;11.20;;;8.85;;
52208;SDS011;38507;53.132;6.394;2022-09-29T07:00:09;16.23;;;11.27;;
52208;SDS011;38507;53.132;6.394;2022-09-29T07:02:35;11.35;;;8.90;;
52208;SDS011;38507;53.132;6.394;2022-09-29T07:05:01;12.93;;;10.15;;
52208;SDS011;38507;53.132;6.394;2022-09-29T07:07:27;12.63;;;9.10;;
52208;SDS011;38507;53.132;6.394;2022-09-29T07:09:53;15.32;;;10.52;;
52208;SDS011;38507;53.132;6.394;2022-09-29T07:12:18;17.15;;;10.90;;
52208;SDS011;38507;53.132;6.394;2022-09-29T07:14:44;14.15;;;11.98;;
52208;SDS011;38507;53.132;6.394;2022-09-29T07:17:09;12.52;;;9.88;;
52208;SDS011;38507;53.132;6.394;2022-09-29T07:19:37;13.30;;;10.48;;
52208;SDS011;38507;53.132;6.394;2022-09-29T07:22:03;13.80;;;10.75;;
52208;SDS011;38507;53.132;6.394;2022-09-29T07:24:30;13.50;;;10.82;;
52208;SDS011;38507;53.132;6.394;2022-09-29T07:26:56;16.75;;;13.60;;
52208;SDS011;38507;53.132;6.394;2022-09-29T07:29:26;20.95;;;13.27;;
52208;SDS011;38507;53.132;6.394;2022-09-29T07:31:56;16.15;;;14.10;;
52208;SDS011;38507;53.132;6.394;2022-09-29T07:34:23;18.60;;;14.57;;
52208;SDS011;38507;53.132;6.394;2022-09-29T07:36:48;19.25;;;15.13;;
52208;SDS011;38507;53.132;6.394;2022-09-29T07:39:15;24.75;;;18.00;;
52208;SDS011;38507;53.132;6.394;2022-09-29T07:41:41;27.90;;;20.85;;
52208;SDS011;38507;53.132;6.394;2022-09-29T07:44:06;32.67;;;21.80;;
52208;SDS011;38507;53.132;6.394;2022-09-29T07:46:32;22.27;;;17.42;;
52208;SDS011;38507;53.132;6.394;2022-09-29T07:48:58;28.15;;;19.63;;
52208;SDS011;38507;53.132;6.394;2022-09-29T07:51:23;28.60;;;19.45;;
52208;SDS011;38507;53.132;6.394;2022-09-29T07:53:49;29.50;;;20.35;;
52208;SDS011;38507;53.132;6.394;2022-09-29T07:56:19;23.20;;;17.42;;
52208;SDS011;38507;53.132;6.394;2022-09-29T07:58:46;23.38;;;17.20;;
52208;SDS011;38507;53.132;6.394;2022-09-29T08:01:16;20.08;;;15.48;;
52208;SDS011;38507;53.132;6.394;2022-09-29T08:03:44;20.98;;;16.15;;
52208;SDS011;38507;53.132;6.394;2022-09-29T08:06:13;24.83;;;17.70;;
52208;SDS011;38507;53.132;6.394;2022-09-29T08:08:40;26.58;;;18.05;;
52208;SDS011;38507;53.132;6.394;2022-09-29T08:11:10;23.67;;;17.00;;
52208;SDS011;38507;53.132;6.394;2022-09-29T08:13:37;26.08;;;17.73;;
52208;SDS011;38507;53.132;6.394;2022-09-29T08:16:05;24.73;;;17.40;;
52208;SDS011;38507;53.132;6.394;2022-09-29T08:18:32;26.23;;;19.67;;
52208;SDS011;38507;53.132;6.394;2022-09-29T08:21:00;31.17;;;21.20;;
52208;SDS011;38507;53.132;6.394;2022-09-29T08:23:26;28.35;;;20.75;;
52208;SDS011;38507;53.132;6.394;2022-09-29T08:25:58;39.95;;;22.67;;
52208;SDS011;38507;53.132;6.394;2022-09-29T08:28:29;35.55;;;21.75;;
52208;SDS011;38507;53.132;6.394;2022-09-29T08:30:55;37.10;;;24.38;;
52208;SDS011;38507;53.132;6.394;2022-09-29T08:33:21;32.53;;;23.02;;
52208;SDS011;38507;53.132;6.394;2022-09-29T08:35:53;30.30;;;21.08;;
52208;SDS011;38507;53.132;6.394;2022-09-29T08:38:20;35.55;;;22.13;;
52208;SDS011;38507;53.132;6.394;2022-09-29T08:40:45;28.33;;;20.98;;
52208;SDS011;38507;53.132;6.394;2022-09-29T08:43:15;26.38;;;19.35;;
52208;SDS011;38507;53.132;6.394;2022-09-29T08:45:48;28.48;;;18.70;;
52208;SDS011;38507;53.132;6.394;2022-09-29T08:48:23;28.75;;;19.27;;
52208;SDS011;38507;53.132;6.394;2022-09-29T08:53:28;22.80;;;17.15;;
52208;SDS011;38507;53.132;6.394;2022-09-29T08:55:57;24.73;;;17.02;;
52208;SDS011;38507;53.132;6.394;2022-09-29T08:58:33;19.90;;;16.13;;
52208;SDS011;38507;53.132;6.394;2022-09-29T09:06:53;14.85;;;11.55;;
52208;SDS011;38507;53.132;6.394;2022-09-29T09:10:02;14.20;;;11.75;;
52208;SDS011;38507;53.132;6.394;2022-09-29T09:15:32;12.88;;;10.23;;
52208;SDS011;38507;53.132;6.394;2022-09-29T09:18:25;11.32;;;8.77;;
52208;SDS011;38507;53.132;6.394;2022-09-29T09:21:18;11.07;;;8.18;;
52208;SDS011;38507;53.132;6.394;2022-09-29T09:26:25;10.98;;;7.35;;
52208;SDS011;38507;53.132;6.394;2022-09-29T09:29:17;7.00;;;5.22;;
52208;SDS011;38507;53.132;6.394;2022-09-29T09:34:56;8.35;;;5.50;;
52208;SDS011;38507;53.132;6.394;2022-09-29T09:37:33;7.57;;;5.80;;
52208;SDS011;38507;53.132;6.394;2022-09-29T09:40:16;8.35;;;5.03;;
52208;SDS011;38507;53.132;6.394;2022-09-29T09:43:04;7.25;;;5.10;;
52208;SDS011;38507;53.132;6.394;2022-09-29T09:45:45;8.25;;;5.32;;
52208;SDS011;38507;53.132;6.394;2022-09-29T09:51:16;8.45;;;4.72;;
52208;SDS011;38507;53.132;6.394;2022-09-29T09:53:48;6.35;;;4.68;;
52208;SDS011;38507;53.132;6.394;2022-09-29T09:56:19;5.68;;;3.97;;
52208;SDS011;38507;53.132;6.394;2022-09-29T10:01:24;4.95;;;3.60;;
52208;SDS011;38507;53.132;6.394;2022-09-29T10:03:51;6.65;;;4.00;;
52208;SDS011;38507;53.132;6.394;2022-09-29T10:06:16;4.90;;;3.40;;
52208;SDS011;38507;53.132;6.394;2022-09-29T10:08:42;5.28;;;3.60;;
52208;SDS011;38507;53.132;6.394;2022-09-29T10:11:29;5.65;;;3.20;;
52208;SDS011;38507;53.132;6.394;2022-09-29T10:13:57;5.35;;;3.55;;
52208;SDS011;38507;53.132;6.394;2022-09-29T10:16:37;5.50;;;3.03;;
52208;SDS011;38507;53.132;6.394;2022-09-29T10:19:09;6.47;;;3.53;;
52208;SDS011;38507;53.132;6.394;2022-09-29T10:21:42;5.25;;;3.17;;
52208;SDS011;38507;53.132;6.394;2022-09-29T10:26:54;4.53;;;3.00;;
52208;SDS011;38507;53.132;6.394;2022-09-29T10:29:24;4.53;;;2.90;;
52208;SDS011;38507;53.132;6.394;2022-09-29T10:35:02;5.50;;;2.08;;
52208;SDS011;38507;53.132;6.394;2022-09-29T10:37:56;1.58;;;0.98;;
52208;SDS011;38507;53.132;6.394;2022-09-29T10:40:25;2.70;;;1.10;;
52208;SDS011;38507;53.132;6.394;2022-09-29T10:42:51;3.20;;;1.67;;
52208;SDS011;38507;53.132;6.394;2022-09-29T10:45:18;2.92;;;1.50;;
52208;SDS011;38507;53.132;6.394;2022-09-29T10:47:47;2.38;;;1.40;;
52208;SDS011;38507;53.132;6.394;2022-09-29T10:50:32;5.80;;;3.22;;
52208;SDS011;38507;53.132;6.394;2022-09-29T10:53:23;2.22;;;1.50;;
52208;SDS011;38507;53.132;6.394;2022-09-29T10:55:52;2.40;;;1.70;;
52208;SDS011;38507;53.132;6.394;2022-09-29T10:58:24;4.43;;;1.38;;
52208;SDS011;38507;53.132;6.394;2022-09-29T11:06:10;2.85;;;1.63;;
52208;SDS011;38507;53.132;6.394;2022-09-29T11:08:56;2.45;;;1.20;;
52208;SDS011;38507;53.132;6.394;2022-09-29T11:11:33;3.20;;;1.40;;
52208;SDS011;38507;53.132;6.394;2022-09-29T11:14:03;3.15;;;1.30;;
52208;SDS011;38507;53.132;6.394;2022-09-29T11:16:33;3.38;;;1.10;;
52208;SDS011;38507;53.132;6.394;2022-09-29T11:19:07;2.08;;;1.10;;
52208;SDS011;38507;53.132;6.394;2022-09-29T11:30:04;3.25;;;1.50;;
52208;SDS011;38507;53.132;6.394;2022-09-29T11:45:21;1.10;;;0.47;;
52208;SDS011;38507;53.132;6.394;2022-09-29T11:48:05;3.28;;;0.65;;
52208;SDS011;38507;53.132;6.394;2022-09-29T11:50:59;2.00;;;0.50;;
52208;SDS011;38507;53.132;6.394;2022-09-29T11:56:50;3.13;;;0.95;;
52208;SDS011;38507;53.132;6.394;2022-09-29T11:59:43;1.33;;;0.70;;
52208;SDS011;38507;53.132;6.394;2022-09-29T12:11:09;3.15;;;1.38;;
52208;SDS011;38507;53.132;6.394;2022-09-29T12:13:44;1.35;;;0.80;;
52208;SDS011;38507;53.132;6.394;2022-09-29T12:16:32;1.65;;;0.88;;
52208;SDS011;38507;53.132;6.394;2022-09-29T12:19:13;2.67;;;0.75;;
52208;SDS011;38507;53.132;6.394;2022-09-29T12:21:45;1.75;;;0.50;;
52208;SDS011;38507;53.132;6.394;2022-09-29T12:27:04;1.73;;;0.70;;
52208;SDS011;38507;53.132;6.394;2022-09-29T12:29:39;3.20;;;0.80;;
52208;SDS011;38507;53.132;6.394;2022-09-29T12:32:17;2.40;;;0.88;;
52208;SDS011;38507;53.132;6.394;2022-09-29T12:34:58;3.10;;;1.50;;
52208;SDS011;38507;53.132;6.394;2022-09-29T12:40:19;3.08;;;1.13;;
52208;SDS011;38507;53.132;6.394;2022-09-29T12:48:28;2.47;;;1.10;;
52208;SDS011;38507;53.132;6.394;2022-09-29T12:56:47;1.23;;;0.60;;
52208;SDS011;38507;53.132;6.394;2022-09-29T13:01:49;1.10;;;0.40;;
52208;SDS011;38507;53.132;6.394;2022-09-29T13:04:39;1.40;;;0.55;;
52208;SDS011;38507;53.132;6.394;2022-09-29T13:07:27;2.08;;;0.50;;
52208;SDS011;38507;53.132;6.394;2022-09-29T13:18:48;1.65;;;0.63;;
52208;SDS011;38507;53.132;6.394;2022-09-29T13:25:23;1.85;;;0.50;;
52208;SDS011;38507;53.132;6.394;2022-09-29T13:27:32;3.83;;;0.70;;
52208;SDS011;38507;53.132;6.394;2022-09-29T13:30:04;3.40;;;0.40;;
52208;SDS011;38507;53.132;6.394;2022-09-29T13:32:37;4.05;;;0.73;;
52208;SDS011;38507;53.132;6.394;2022-09-29T13:35:09;3.75;;;0.70;;
52208;SDS011;38507;53.132;6.394;2022-09-29T13:37:51;2.33;;;0.70;;
52208;SDS011;38507;53.132;6.394;2022-09-29T13:40:21;2.05;;;0.40;;
52208;SDS011;38507;53.132;6.394;2022-09-29T13:42:49;2.67;;;0.75;;
52208;SDS011;38507;53.132;6.394;2022-09-29T13:47:52;1.98;;;0.60;;
52208;SDS011;38507;53.132;6.394;2022-09-29T13:58:28;4.18;;;0.90;;
52208;SDS011;38507;53.132;6.394;2022-09-29T14:00:56;1.48;;;0.70;;
52208;SDS011;38507;53.132;6.394;2022-09-29T14:03:25;1.60;;;0.80;;
52208;SDS011;38507;53.132;6.394;2022-09-29T14:06:05;6.63;;;0.90;;
52208;SDS011;38507;53.132;6.394;2022-09-29T14:08:45;3.65;;;1.00;;
52208;SDS011;38507;53.132;6.394;2022-09-29T14:24:51;3.63;;;1.00;;
52208;SDS011;38507;53.132;6.394;2022-09-29T14:27:24;1.70;;;0.90;;
52208;SDS011;38507;53.132;6.394;2022-09-29T14:38:21;3.10;;;0.60;;
52208;SDS011;38507;53.132;6.394;2022-09-29T14:40:57;1.25;;;0.57;;
52208;SDS011;38507;53.132;6.394;2022-09-29T14:52:50;2.88;;;0.40;;
52208;SDS011;38507;53.132;6.394;2022-09-29T15:01:26;3.75;;;0.50;;
52208;SDS011;38507;53.132;6.394;2022-09-29T15:04:06;1.70;;;0.50;;
52208;SDS011;38507;53.132;6.394;2022-09-29T15:06:45;1.83;;;0.60;;
52208;SDS011;38507;53.132;6.394;2022-09-29T15:09:16;1.17;;;0.50;;
52208;SDS011;38507;53.132;6.394;2022-09-29T15:11:50;2.00;;;0.52;;
52208;SDS011;38507;53.132;6.394;2022-09-29T15:19:45;0.65;;;0.30;;
52208;SDS011;38507;53.132;6.394;2022-09-29T15:25:25;1.90;;;0.50;;
52208;SDS011;38507;53.132;6.394;2022-09-29T15:28:05;1.08;;;0.32;;
52208;SDS011;38507;53.132;6.394;2022-09-29T15:30:38;1.40;;;0.40;;
52208;SDS011;38507;53.132;6.394;2022-09-29T15:35:52;1.70;;;0.60;;
52208;SDS011;38507;53.132;6.394;2022-09-29T15:40:54;4.82;;;0.60;;
52208;SDS011;38507;53.132;6.394;2022-09-29T15:43:26;0.95;;;0.63;;
52208;SDS011;38507;53.132;6.394;2022-09-29T15:45:55;2.42;;;0.65;;
52208;SDS011;38507;53.132;6.394;2022-09-29T15:48:27;1.23;;;0.40;;
52208;SDS011;38507;53.132;6.394;2022-09-29T15:50:55;1.05;;;0.50;;
52208;SDS011;38507;53.132;6.394;2022-09-29T15:53:22;1.17;;;0.50;;
52208;SDS011;38507;53.132;6.394;2022-09-29T15:55:52;1.10;;;0.60;;
52208;SDS011;38507;53.132;6.394;2022-09-29T16:00:51;0.65;;;0.40;;
52208;SDS011;38507;53.132;6.394;2022-09-29T16:03:33;1.10;;;0.45;;
52208;SDS011;38507;53.132;6.394;2022-09-29T16:06:06;2.65;;;0.50;;
52208;SDS011;38507;53.132;6.394;2022-09-29T16:08:47;0.82;;;0.40;;
52208;SDS011;38507;53.132;6.394;2022-09-29T16:16:46;6.60;;;0.73;;
52208;SDS011;38507;53.132;6.394;2022-09-29T16:19:20;1.25;;;0.68;;
52208;SDS011;38507;53.132;6.394;2022-09-29T16:21:57;1.17;;;0.68;;
52208;SDS011;38507;53.132;6.394;2022-09-29T16:24:28;1.08;;;0.70;;
52208;SDS011;38507;53.132;6.394;2022-09-29T16:26:56;4.10;;;0.80;;
52208;SDS011;38507;53.132;6.394;2022-09-29T16:29:24;0.77;;;0.50;;
52208;SDS011;38507;53.132;6.394;2022-09-29T16:31:51;2.60;;;0.80;;
52208;SDS011;38507;53.132;6.394;2022-09-29T16:36:53;1.65;;;0.50;;
52208;SDS011;38507;53.132;6.394;2022-09-29T16:39:21;4.45;;;0.70;;
52208;SDS011;38507;53.132;6.394;2022-09-29T16:41:50;2.33;;;0.90;;
52208;SDS011;38507;53.132;6.394;2022-09-29T16:44:27;4.15;;;1.00;;
52208;SDS011;38507;53.132;6.394;2022-09-29T16:47:02;2.17;;;1.20;;
52208;SDS011;38507;53.132;6.394;2022-09-29T16:49:55;1.83;;;0.90;;
52208;SDS011;38507;53.132;6.394;2022-09-29T16:52:31;2.22;;;0.98;;
52208;SDS011;38507;53.132;6.394;2022-09-29T16:55:17;3.20;;;1.65;;
52208;SDS011;38507;53.132;6.394;2022-09-29T17:00:33;2.95;;;1.40;;
52208;SDS011;38507;53.132;6.394;2022-09-29T17:03:00;3.00;;;1.42;;
52208;SDS011;38507;53.132;6.394;2022-09-29T17:05:29;1.80;;;1.30;;
52208;SDS011;38507;53.132;6.394;2022-09-29T17:08:00;2.58;;;1.30;;
52208;SDS011;38507;53.132;6.394;2022-09-29T17:10:27;3.40;;;2.10;;
52208;SDS011;38507;53.132;6.394;2022-09-29T17:12:54;9.75;;;1.83;;
52208;SDS011;38507;53.132;6.394;2022-09-29T17:15:20;2.55;;;1.00;;
52208;SDS011;38507;53.132;6.394;2022-09-29T17:17:47;2.35;;;1.00;;
52208;SDS011;38507;53.132;6.394;2022-09-29T17:20:15;2.38;;;1.13;;
52208;SDS011;38507;53.132;6.394;2022-09-29T17:22:53;2.97;;;1.00;;
52208;SDS011;38507;53.132;6.394;2022-09-29T17:25:18;2.40;;;0.95;;
52208;SDS011;38507;53.132;6.394;2022-09-29T17:27:44;4.18;;;1.20;;
52208;SDS011;38507;53.132;6.394;2022-09-29T17:30:28;3.77;;;1.10;;
52208;SDS011;38507;53.132;6.394;2022-09-29T17:32:55;3.50;;;1.90;;
52208;SDS011;38507;53.132;6.394;2022-09-29T17:35:24;3.85;;;1.60;;
52208;SDS011;38507;53.132;6.394;2022-09-29T17:37:54;2.53;;;1.50;;
52208;SDS011;38507;53.132;6.394;2022-09-29T17:40:28;4.68;;;1.75;;
52208;SDS011;38507;53.132;6.394;2022-09-29T17:42:58;4.75;;;2.00;;
52208;SDS011;38507;53.132;6.394;2022-09-29T17:45:24;3.85;;;1.65;;
52208;SDS011;38507;53.132;6.394;2022-09-29T17:47:51;6.47;;;2.67;;
52208;SDS011;38507;53.132;6.394;2022-09-29T17:50:28;3.65;;;1.60;;
52208;SDS011;38507;53.132;6.394;2022-09-29T17:52:55;2.95;;;1.58;;
52208;SDS011;38507;53.132;6.394;2022-09-29T17:55:22;2.80;;;1.70;;
52208;SDS011;38507;53.132;6.394;2022-09-29T17:57:49;2.63;;;1.38;;
52208;SDS011;38507;53.132;6.394;2022-09-29T18:00:24;5.63;;;1.23;;
52208;SDS011;38507;53.132;6.394;2022-09-29T18:02:52;6.45;;;2.15;;
52208;SDS011;38507;53.132;6.394;2022-09-29T18:05:24;3.13;;;2.33;;
52208;SDS011;38507;53.132;6.394;2022-09-29T18:07:51;6.85;;;5.57;;
52208;SDS011;38507;53.132;6.394;2022-09-29T18:10:21;10.02;;;3.45;;
52208;SDS011;38507;53.132;6.394;2022-09-29T18:12:54;4.78;;;2.50;;
52208;SDS011;38507;53.132;6.394;2022-09-29T18:15:20;7.55;;;3.30;;
52208;SDS011;38507;53.132;6.394;2022-09-29T18:17:46;7.82;;;4.53;;
52208;SDS011;38507;53.132;6.394;2022-09-29T18:22:42;12.68;;;5.32;;
52208;SDS011;38507;53.132;6.394;2022-09-29T18:25:08;7.05;;;4.32;;
52208;SDS011;38507;53.132;6.394;2022-09-29T18:27:34;9.30;;;4.70;;
52208;SDS011;38507;53.132;6.394;2022-09-29T18:30:02;10.38;;;3.83;;
52208;SDS011;38507;53.132;6.394;2022-09-29T18:32:30;7.65;;;4.53;;
52208;SDS011;38507;53.132;6.394;2022-09-29T18:34:56;6.47;;;3.90;;